Dillon, Montana
Current Conditions -  °F | °C
As of 4:53 AM on Saturday 22 Nov 2014 (Local Time) from KDLN Reporting Station
Broken Clouds Broken Clouds  
Wind Chill: 31°   Ceiling: 8500
Heat Index: 40°   Visibility: 10mi
Dew Point: 29°   Wind: 18mph
Humidity: 65%   Direction: 210°SSW
Pressure: 29.51"   Gusts: NA
Location:  45.22°N, 112.64°W
Report Text: KDLN 221153Z AUTO 21016KT 10SM SCT050 BKN085 BKN110 04/M02 A2951 RMK AO2 SLP990 T00441017 10044 21011 58024
Loading
Personal Weather Stations






























Interactive Weather Map New forecast layout! Learn more

10-Day Weather Forecast

Advertisements
Track Severe Weather on mobile